ADDS METAR Data INFO
IDs: Format: Raw Decoded Include TAF

Data at: 2241 UTC 11 Dec 2017

KOUN 112235Z AUTO 32011KT 10SM CLR 16/M08 A3012 RMK AO2 T01651085
KOUN 112215Z AUTO 33014KT 10SM CLR 17/M09 A3010 RMK AO2 T01731085
KOUN 112155Z AUTO 31014KT 10SM CLR 18/M08 A3009 RMK AO2 T01791085
KOUN 112135Z AUTO 32011KT 10SM CLR 18/M08 A3009 RMK AO2 T01811084
KOUN 112115Z AUTO 34017KT 10SM CLR 18/M09 A3009 RMK AO2 T01851094
KOUN 112055Z AUTO 33016KT 10SM CLR 19/M09 A3008 RMK AO2 T01941093
KOUN 112035Z AUTO 32011KT 10SM CLR 20/M09 A3008 RMK AO2 T02001093
KOUN 112015Z AUTO 30010KT 10SM CLR 20/M10 A3008 RMK AO2 T02001096
KOUN 111955Z AUTO 31011KT 10SM CLR 20/M10 A3008 RMK AO2 T02021098
KOUN 111935Z AUTO 30014KT 10SM CLR 20/M10 A3009 RMK AO2 T02051099
KOUN 111915Z AUTO 31019KT 10SM CLR 20/M08 A3009 RMK AO2 T02041080
KOUN 111855Z AUTO 30015KT 10SM CLR 22/M09 A3009 RMK AO2 T02171089
KOUN 111835Z AUTO 26009KT 10SM CLR 21/M09 A3009 RMK AO2 T02051087
KOUN 111815Z AUTO 27009KT 10SM CLR 20/M08 A3010 RMK AO2 T01971082
KOUN 111755Z AUTO 27007KT 10SM CLR 19/M08 A3012 RMK AO2 T01861079 10187 21018
KOUN 111735Z AUTO 27009KT 10SM CLR 18/M08 A3013 RMK AO2 T01781081
KOUN 111715Z AUTO 30010G14KT 10SM CLR 17/M09 A3015 RMK AO2 T01681087
KOUN 111655Z AUTO 30006KT 10SM CLR 15/M07 A3015 RMK AO2 T01551068
KOUN 111635Z AUTO 31005KT 10SM CLR 14/M05 A3015 RMK AO2 T01441051
KOUN 111615Z AUTO 28004KT 10SM CLR 14/M06 A3016 RMK AO2 T01401060
KOUN 111555Z AUTO 24006KT 10SM CLR 13/M08 A3016 RMK AO2 T01321083
KOUN 111535Z AUTO 25006KT 10SM CLR 12/M09 A3017 RMK AO2 T01151089
KOUN 111515Z AUTO 22004KT 10SM CLR 10/M06 A3016 RMK AO2 T01031062
KOUN 111455Z AUTO 23004KT 10SM CLR 07/M05 A3016 RMK AO2 T00751047
KOUN 111435Z AUTO 00000KT 10SM CLR 03/M03 A3017 RMK AO2 T00321034
KOUN 111415Z AUTO 00000KT 10SM CLR 02/M05 A3017 RMK AO2 T00181054
KOUN 111355Z AUTO 00000KT 10SM CLR 02/M06 A3017 RMK AO2 T00191064
KOUN 111335Z AUTO 00000KT 10SM CLR M01/M06 A3016 RMK AO2 T10131063
KOUN 111315Z AUTO 19004KT 10SM CLR 00/M07 A3016 RMK AO2 T10031066
KOUN 111255Z AUTO 20003KT 10SM CLR 00/M07 A3017 RMK AO2 T10021074
KOUN 111235Z AUTO 00000KT 10SM CLR 00/M07 A3017 RMK AO2 T00011069
KOUN 111215Z AUTO 00000KT 10SM CLR 01/M07 A3018 RMK AO2 T00091071
KOUN 111155Z AUTO 00000KT 10SM CLR 01/M08 A3018 RMK AO2 T00091076 10047 20002
KOUN 111135Z AUTO 00000KT 10SM CLR 01/M08 A3018 RMK AO2 T00081075
KOUN 111115Z AUTO 00000KT 10SM CLR 02/M07 A3018 RMK AO2 T00191075
KOUN 111055Z AUTO 00000KT 10SM CLR 03/M08 A3019 RMK AO2 T00261075
KOUN 111035Z AUTO 00000KT 10SM CLR 02/M07 A3020 RMK AO2 T00251075
KOUN 111015Z AUTO 23003KT 10SM CLR 02/M08 A3020 RMK AO2 T00241075
KOUN 110955Z AUTO 24004KT 10SM CLR 03/M07 A3021 RMK AO2 T00281070
KOUN 110935Z AUTO 23005KT 10SM CLR 02/M07 A3021 RMK AO2 T00211068
KOUN 110915Z AUTO 23005KT 10SM CLR 02/M07 A3021 RMK AO2 T00231068
KOUN 110855Z AUTO 23004KT 10SM CLR 01/M07 A3021 RMK AO2 T00121068
KOUN 110835Z AUTO 00000KT 10SM CLR 01/M07 A3021 RMK AO2 T00121071
KOUN 110815Z AUTO 00000KT 10SM CLR 02/M07 A3020 RMK AO2 T00231070
KOUN 110755Z AUTO 00000KT 10SM CLR 02/M07 A3021 RMK AO2 T00231071
KOUN 110735Z AUTO 00000KT 10SM CLR 02/M07 A3021 RMK AO2 T00201071
KOUN 110715Z AUTO 00000KT 10SM CLR 04/M07 A3021 RMK AO2 T00371073
KOUN 110655Z AUTO 00000KT 10SM CLR 03/M07 A3022 RMK AO2 T00291071
KOUN 110635Z AUTO 00000KT 10SM CLR 03/M08 A3023 RMK AO2 T00281077
KOUN 110615Z AUTO 00000KT 10SM CLR 04/M07 A3024 RMK AO2 T00361074
KOUN 110555Z AUTO 00000KT 10SM CLR 03/M08 A3024 RMK AO2 T00341078 10155 20032
KOUN 110535Z AUTO 00000KT 10SM CLR 05/M07 A3025 RMK AO2 T00461075
KOUN 110515Z AUTO 00000KT 10SM CLR 04/M07 A3025 RMK AO2 T00421073
KOUN 110455Z AUTO 00000KT 10SM CLR 04/M07 A3025 RMK AO2 T00401073
KOUN 110435Z AUTO 00000KT 10SM CLR 05/M07 A3025 RMK AO2 T00481074
KOUN 110415Z AUTO 00000KT 10SM CLR 06/M08 A3025 RMK AO2 T00611078
KOUN 110355Z AUTO 25004KT 10SM CLR 04/M08 A3025 RMK AO2 T00421077
KOUN 110335Z AUTO 27004KT 10SM CLR 07/M08 A3025 RMK AO2 T00661081
KOUN 110315Z AUTO 00000KT 10SM CLR 07/M08 A3025 RMK AO2 T00741083
KOUN 110255Z AUTO 00000KT 10SM CLR 07/M08 A3025 RMK AO2 T00721080
KOUN 110235Z AUTO 26004KT 10SM CLR 08/M09 A3024 RMK AO2 T00781086
KOUN 110215Z AUTO 22004KT 10SM CLR 07/M09 A3024 RMK AO2 T00731086
KOUN 110155Z AUTO 00000KT 10SM CLR 08/M09 A3024 RMK AO2 T00781091
KOUN 110135Z AUTO 00000KT 10SM CLR 08/M09 A3025 RMK AO2 T00781094
KOUN 110115Z AUTO 32003KT 10SM CLR 12/M10 A3025 RMK AO2 T01171098
KOUN 110055Z AUTO 29003KT 10SM CLR 13/M10 A3025 RMK AO2 T01251099
KOUN 110035Z AUTO 27003KT 10SM CLR 12/M10 A3024 RMK AO2 T01171101
KOUN 110015Z AUTO 29004KT 10SM CLR 15/M10 A3024 RMK AO2 T01461102
KOUN 102355Z AUTO 27004KT 10SM CLR 15/M11 A3024 RMK AO2 T01551107 10206 20154 402061009
KOUN 102335Z AUTO 27006KT 10SM CLR 16/M11 A3024 RMK AO2 T01601106
KOUN 102315Z AUTO 27005KT 10SM CLR 17/M11 A3024 RMK AO2 T01651105
KOUN 102255Z AUTO 28007KT 10SM CLR 18/M11 A3024 RMK AO2 T01771106
KOUN 102235Z AUTO 28009KT 10SM CLR 19/M11 A3024 RMK AO2 T01901109
KOUN 102215Z AUTO 28010KT 10SM CLR 20/M11 A3023 RMK AO2 T01961107
KOUN 102155Z AUTO 28011KT 10SM CLR 20/M11 A3024 RMK AO2 T02001110
KOUN 102135Z AUTO 28010KT 10SM CLR 20/M11 A3023 RMK AO2 T02041112
KOUN 102115Z AUTO 31011KT 10SM CLR 20/M12 A3023 RMK AO2 T02031115
KOUN 102055Z AUTO 30010KT 10SM CLR 20/M12 A3023 RMK AO2 T02021117
KOUN 102035Z AUTO 27010KT 10SM CLR 20/M11 A3023 RMK AO2 T02031110
KOUN 102015Z AUTO 29010KT 10SM CLR 20/M10 A3023 RMK AO2 T01991104
KOUN 101955Z AUTO 28009KT 10SM CLR 20/M10 A3024 RMK AO2 T01961099
KOUN 101935Z AUTO 28009KT 10SM CLR 19/M09 A3025 RMK AO2 T01921090
KOUN 101915Z AUTO 29009KT 10SM CLR 19/M09 A3025 RMK AO2 T01851094
KOUN 101855Z AUTO 31010KT 10SM CLR 18/M09 A3026 RMK AO2 T01791093
KOUN 101835Z AUTO 29008KT 10SM CLR 17/M09 A3027 RMK AO2 T01741091
KOUN 101815Z AUTO 28009KT 10SM CLR 17/M09 A3028 RMK AO2 T01671088
KOUN 101755Z AUTO 27006KT 10SM CLR 15/M07 A3029 RMK AO2 T01541073 10159 21006
KOUN 101735Z AUTO 30011KT 10SM CLR 15/M07 A3030 RMK AO2 T01481072
KOUN 101715Z AUTO 28007KT 10SM CLR 13/M06 A3030 RMK AO2 T01261061
KOUN 101655Z AUTO 29007KT 10SM CLR 12/M06 A3031 RMK AO2 T01161064
KOUN 101635Z AUTO 29007KT 10SM CLR 11/M07 A3031 RMK AO2 T01071068
KOUN 101615Z AUTO 28008KT 10SM CLR 09/M07 A3031 RMK AO2 T00941068
KOUN 101555Z AUTO 27006KT 10SM CLR 08/M05 A3031 RMK AO2 T00791052
KOUN 101535Z AUTO 27006KT 10SM CLR 07/M06 A3031 RMK AO2 T00671058
KOUN 101515Z AUTO 26007KT 10SM CLR 05/M06 A3030 RMK AO2 T00541064
KOUN 101455Z AUTO 26007KT 10SM CLR 04/M07 A3029 RMK AO2 T00431066
KOUN 101435Z AUTO 24006KT 10SM CLR 03/M07 A3029 RMK AO2 T00331065
KOUN 101415Z AUTO 24005KT 10SM CLR 03/M07 A3029 RMK AO2 T00271066
KOUN 101355Z AUTO 24005KT 10SM CLR 02/M07 A3028 RMK AO2 T00211070
KOUN 101335Z AUTO 23006KT 10SM CLR 01/M08 A3028 RMK AO2 T00121076
KOUN 101315Z AUTO 22004KT 10SM CLR 01/M07 A3028 RMK AO2 T00121073
KOUN 101255Z AUTO 21005KT 10SM CLR 00/M07 A3027 RMK AO2 T10031071
KOUN 101235Z AUTO 22005KT 10SM CLR 02/M07 A3027 RMK AO2 T00191069
KOUN 101215Z AUTO 24005KT 10SM CLR 01/M07 A3028 RMK AO2 T00101070
KOUN 101155Z AUTO 23004KT 10SM CLR 01/M07 A3027 RMK AO2 T00121068 10032 21005
KOUN 101135Z AUTO 23004KT 10SM CLR 01/M07 A3027 RMK AO2 T00111068
KOUN 101115Z AUTO 24003KT 10SM CLR 01/M07 A3027 RMK AO2 T00141068
KOUN 101055Z AUTO 24005KT 10SM CLR 01/M07 A3028 RMK AO2 T00141069